CFZWF KSLC-KBOI
Flight info
| Callsign | CFZWF |
|---|---|
| Flight time | 1h 21m |
| Altitude | 30000 |
| Route | TCH J15 TWF |
| Aircraft | TBM8/L-SDFGRWY/S |
Departure
| Time | 2026-05-07 10:25 |
|---|---|
| Airport | Salt Lake City International Airport (KSLC) |
Arrival
| Time | 2026-05-07 11:46 |
|---|---|
| Airport | Boise Air Terminal/Gowen Field (KBOI) |
| Time | Latitude | Longitude | Altitude | Speed | Heading |
|---|---|---|---|---|---|
| 2026-05-07 10:11 | 40.77782 | -111.95943 | 4230 ft | 0 kts | 2° |
| 2026-05-07 10:21 | 40.77789 | -111.95947 | 4230 ft | 5 kts | 307° |
| 2026-05-07 10:21 | 40.77782 | -111.96010 | 4231 ft | 8 kts | 273° |
| 2026-05-07 10:21 | 40.77820 | -111.96056 | 4230 ft | 8 kts | 4° |
| 2026-05-07 10:21 | 40.77872 | -111.96011 | 4228 ft | 10 kts | 32° |
| 2026-05-07 10:22 | 40.77939 | -111.96001 | 4227 ft | 10 kts | 2° |
| 2026-05-07 10:22 | 40.78002 | -111.95999 | 4227 ft | 9 kts | 356° |
| 2026-05-07 10:22 | 40.78059 | -111.96001 | 4227 ft | 7 kts | 359° |
| 2026-05-07 10:22 | 40.78112 | -111.96002 | 4227 ft | 8 kts | 1° |
| 2026-05-07 10:23 | 40.78174 | -111.96003 | 4224 ft | 12 kts | 360° |
| 2026-05-07 10:23 | 40.78241 | -111.96035 | 4224 ft | 9 kts | 278° |
| 2026-05-07 10:23 | 40.78240 | -111.96100 | 4225 ft | 5 kts | 268° |
| 2026-05-07 10:23 | 40.78236 | -111.96180 | 4227 ft | 11 kts | 251° |
| 2026-05-07 10:24 | 40.78186 | -111.96209 | 4227 ft | 19 kts | 176° |
| 2026-05-07 10:24 | 40.77877 | -111.96205 | 4231 ft | 68 kts | 179° |
| 2026-05-07 10:24 | 40.77329 | -111.96212 | 4349 ft | 90 kts | 176° |
| 2026-05-07 10:24 | 40.76664 | -111.96183 | 4730 ft | 96 kts | 173° |
| 2026-05-07 10:25 | 40.76006 | -111.96146 | 5138 ft | 98 kts | 171° |
| 2026-05-07 10:25 | 40.75374 | -111.95753 | 5442 ft | 106 kts | 132° |
| 2026-05-07 10:25 | 40.75148 | -111.94871 | 5803 ft | 114 kts | 80° |
| 2026-05-07 10:25 | 40.75665 | -111.93994 | 6041 ft | 136 kts | 32° |
| 2026-05-07 10:26 | 40.76597 | -111.93909 | 6536 ft | 138 kts | 351° |
| 2026-05-07 10:26 | 40.77542 | -111.93906 | 7029 ft | 133 kts | 1° |
| 2026-05-07 10:26 | 40.78459 | -111.93834 | 7484 ft | 131 kts | 1° |
| 2026-05-07 10:26 | 40.79363 | -111.93740 | 7949 ft | 129 kts | 1° |
| 2026-05-07 10:27 | 40.80246 | -111.93625 | 8358 ft | 128 kts | 1° |
| 2026-05-07 10:27 | 40.81124 | -111.93491 | 8732 ft | 127 kts | 1° |
| 2026-05-07 10:27 | 40.82013 | -111.93402 | 9004 ft | 134 kts | 347° |
| 2026-05-07 10:27 | 40.82842 | -111.94103 | 9015 ft | 156 kts | 310° |
| 2026-05-07 10:28 | 40.83500 | -111.95368 | 9010 ft | 176 kts | 304° |
| 2026-05-07 10:28 | 40.84214 | -111.96723 | 9012 ft | 189 kts | 307° |
| 2026-05-07 10:28 | 40.85011 | -111.98157 | 9010 ft | 198 kts | 308° |
| 2026-05-07 10:28 | 40.85942 | -111.99539 | 9019 ft | 203 kts | 313° |
| 2026-05-07 10:29 | 40.86874 | -112.00918 | 9261 ft | 197 kts | 312° |
| 2026-05-07 10:29 | 40.87726 | -112.02194 | 9673 ft | 184 kts | 312° |
| 2026-05-07 10:29 | 40.88550 | -112.03419 | 10103 ft | 174 kts | 313° |
| 2026-05-07 10:30 | 40.90096 | -112.05707 | 10891 ft | 160 kts | 313° |
| 2026-05-07 10:30 | 40.90819 | -112.06777 | 11347 ft | 150 kts | 312° |
| 2026-05-07 10:30 | 40.91488 | -112.07774 | 11850 ft | 139 kts | 312° |
| 2026-05-07 10:30 | 40.92107 | -112.08693 | 12355 ft | 128 kts | 312° |
| 2026-05-07 10:31 | 40.92695 | -112.09567 | 12712 ft | 128 kts | 313° |
| 2026-05-07 10:31 | 40.93290 | -112.10442 | 13072 ft | 127 kts | 312° |
| 2026-05-07 10:31 | 40.93880 | -112.11313 | 13422 ft | 127 kts | 312° |
| 2026-05-07 10:31 | 40.94454 | -112.12161 | 13772 ft | 127 kts | 312° |
| 2026-05-07 10:32 | 40.95042 | -112.13032 | 14095 ft | 127 kts | 312° |
| 2026-05-07 10:32 | 40.95631 | -112.13905 | 14395 ft | 127 kts | 313° |
| 2026-05-07 10:32 | 40.96215 | -112.14772 | 14711 ft | 128 kts | 313° |
| 2026-05-07 10:32 | 40.96806 | -112.15647 | 15019 ft | 128 kts | 314° |
| 2026-05-07 10:33 | 40.97399 | -112.16528 | 15321 ft | 128 kts | 314° |
| 2026-05-07 10:33 | 40.97991 | -112.17408 | 15627 ft | 128 kts | 314° |
| 2026-05-07 10:33 | 40.98585 | -112.18292 | 15928 ft | 129 kts | 315° |
| 2026-05-07 10:33 | 40.99181 | -112.19179 | 16234 ft | 129 kts | 315° |
| 2026-05-07 10:34 | 40.99778 | -112.20066 | 16533 ft | 129 kts | 315° |
| 2026-05-07 10:34 | 41.00382 | -112.20959 | 16802 ft | 130 kts | 316° |
| 2026-05-07 10:34 | 41.00983 | -112.21855 | 17112 ft | 130 kts | 316° |
| 2026-05-07 10:34 | 41.01589 | -112.22755 | 17351 ft | 131 kts | 316° |
| 2026-05-07 10:35 | 41.02194 | -112.23657 | 17680 ft | 131 kts | 317° |
| 2026-05-07 10:35 | 41.02794 | -112.24548 | 17982 ft | 131 kts | 317° |
| 2026-05-07 10:35 | 41.03401 | -112.25452 | 18299 ft | 132 kts | 317° |
| 2026-05-07 10:35 | 41.04011 | -112.26361 | 18585 ft | 132 kts | 318° |
| 2026-05-07 10:36 | 41.04624 | -112.27274 | 18845 ft | 132 kts | 318° |
| 2026-05-07 10:36 | 41.05237 | -112.28190 | 19085 ft | 133 kts | 318° |
| 2026-05-07 10:36 | 41.05855 | -112.29111 | 19342 ft | 134 kts | 318° |
| 2026-05-07 10:36 | 41.06474 | -112.30035 | 19597 ft | 134 kts | 318° |
| 2026-05-07 10:37 | 41.07093 | -112.30960 | 19871 ft | 135 kts | 318° |
| 2026-05-07 10:37 | 41.07717 | -112.31892 | 20125 ft | 135 kts | 318° |
| 2026-05-07 10:37 | 41.08343 | -112.32827 | 20394 ft | 136 kts | 319° |
| 2026-05-07 10:37 | 41.08946 | -112.33726 | 20649 ft | 136 kts | 318° |
| 2026-05-07 10:38 | 41.09584 | -112.34679 | 20915 ft | 137 kts | 318° |
| 2026-05-07 10:38 | 41.10216 | -112.35624 | 21165 ft | 137 kts | 318° |
| 2026-05-07 10:38 | 41.10843 | -112.36560 | 21428 ft | 138 kts | 319° |
| 2026-05-07 10:38 | 41.11481 | -112.37513 | 21683 ft | 138 kts | 319° |
| 2026-05-07 10:39 | 41.12123 | -112.38472 | 21936 ft | 139 kts | 319° |
| 2026-05-07 10:39 | 41.12765 | -112.39434 | 22189 ft | 140 kts | 319° |
| 2026-05-07 10:39 | 41.13201 | -112.40086 | 22363 ft | 140 kts | 319° |
| 2026-05-07 10:39 | 41.13841 | -112.41044 | 22612 ft | 141 kts | 319° |
| 2026-05-07 10:40 | 41.14490 | -112.42017 | 22860 ft | 141 kts | 319° |
| 2026-05-07 10:40 | 41.15145 | -112.42997 | 23110 ft | 142 kts | 319° |
| 2026-05-07 10:40 | 41.15801 | -112.43981 | 23352 ft | 143 kts | 319° |
| 2026-05-07 10:40 | 41.16461 | -112.44970 | 23595 ft | 143 kts | 319° |
| 2026-05-07 10:41 | 41.17123 | -112.45962 | 23799 ft | 144 kts | 319° |
| 2026-05-07 10:41 | 41.17788 | -112.46960 | 23998 ft | 144 kts | 319° |
| 2026-05-07 10:41 | 41.18456 | -112.47962 | 24198 ft | 145 kts | 319° |
| 2026-05-07 10:41 | 41.19124 | -112.48964 | 24394 ft | 145 kts | 319° |
| 2026-05-07 10:42 | 41.19795 | -112.49972 | 24586 ft | 146 kts | 319° |
| 2026-05-07 10:42 | 41.20459 | -112.50969 | 24776 ft | 146 kts | 319° |
| 2026-05-07 10:42 | 41.21143 | -112.51995 | 24980 ft | 147 kts | 320° |
| 2026-05-07 10:42 | 41.21820 | -112.53013 | 25174 ft | 147 kts | 320° |
| 2026-05-07 10:43 | 41.22499 | -112.54034 | 25367 ft | 148 kts | 320° |
| 2026-05-07 10:43 | 41.23171 | -112.55045 | 25554 ft | 148 kts | 320° |
| 2026-05-07 10:43 | 41.23856 | -112.56076 | 25752 ft | 149 kts | 320° |
| 2026-05-07 10:43 | 41.24544 | -112.57111 | 25945 ft | 149 kts | 320° |
| 2026-05-07 10:44 | 41.25222 | -112.58132 | 26128 ft | 150 kts | 320° |
| 2026-05-07 10:44 | 41.25913 | -112.59172 | 26320 ft | 150 kts | 320° |
| 2026-05-07 10:44 | 41.26605 | -112.60216 | 26514 ft | 151 kts | 321° |
| 2026-05-07 10:44 | 41.27301 | -112.61264 | 26701 ft | 151 kts | 320° |
| 2026-05-07 10:45 | 41.27997 | -112.62314 | 26883 ft | 152 kts | 320° |
| 2026-05-07 10:45 | 41.28698 | -112.63370 | 27063 ft | 152 kts | 321° |
| 2026-05-07 10:45 | 41.29399 | -112.64428 | 27259 ft | 153 kts | 321° |
| 2026-05-07 10:45 | 41.30102 | -112.65489 | 27438 ft | 153 kts | 321° |
| 2026-05-07 10:46 | 41.30810 | -112.66555 | 27619 ft | 154 kts | 321° |
| 2026-05-07 10:46 | 41.31517 | -112.67625 | 27797 ft | 154 kts | 321° |
| 2026-05-07 10:46 | 41.32228 | -112.68698 | 27983 ft | 155 kts | 321° |
| 2026-05-07 10:46 | 41.32941 | -112.69774 | 28156 ft | 155 kts | 321° |
| 2026-05-07 10:47 | 41.33655 | -112.70854 | 28329 ft | 156 kts | 321° |
| 2026-05-07 10:47 | 41.34372 | -112.71938 | 28497 ft | 156 kts | 321° |
| 2026-05-07 10:47 | 41.35093 | -112.73029 | 28679 ft | 157 kts | 322° |
| 2026-05-07 10:47 | 41.35803 | -112.74105 | 28849 ft | 157 kts | 322° |
| 2026-05-07 10:48 | 41.36536 | -112.75214 | 29025 ft | 157 kts | 322° |
| 2026-05-07 10:48 | 41.37261 | -112.76311 | 29186 ft | 158 kts | 322° |
| 2026-05-07 10:48 | 41.37988 | -112.77412 | 29360 ft | 159 kts | 322° |
| 2026-05-07 10:48 | 41.38707 | -112.78505 | 29520 ft | 159 kts | 322° |
| 2026-05-07 10:49 | 41.39439 | -112.79616 | 29673 ft | 160 kts | 322° |
| 2026-05-07 10:49 | 41.40174 | -112.80728 | 29828 ft | 160 kts | 322° |
| 2026-05-07 10:49 | 41.40923 | -112.81859 | 29867 ft | 167 kts | 322° |
| 2026-05-07 10:49 | 41.41709 | -112.83042 | 29870 ft | 174 kts | 322° |
| 2026-05-07 10:50 | 41.42529 | -112.84285 | 29874 ft | 182 kts | 321° |
| 2026-05-07 10:50 | 41.43379 | -112.85578 | 29877 ft | 189 kts | 321° |
| 2026-05-07 10:50 | 41.44262 | -112.86922 | 29890 ft | 196 kts | 321° |
| 2026-05-07 10:50 | 41.45178 | -112.88315 | 29873 ft | 203 kts | 321° |
| 2026-05-07 10:51 | 41.46119 | -112.89747 | 29879 ft | 208 kts | 321° |
| 2026-05-07 10:51 | 41.47084 | -112.91217 | 29876 ft | 213 kts | 320° |
| 2026-05-07 10:51 | 41.48071 | -112.92724 | 29882 ft | 218 kts | 320° |
| 2026-05-07 10:51 | 41.49081 | -112.94261 | 29868 ft | 223 kts | 320° |
| 2026-05-07 10:52 | 41.50115 | -112.95837 | 29870 ft | 228 kts | 320° |
| 2026-05-07 10:52 | 41.51171 | -112.97448 | 29870 ft | 232 kts | 320° |
| 2026-05-07 10:52 | 41.52228 | -112.99064 | 29877 ft | 236 kts | 320° |
| 2026-05-07 10:52 | 41.53316 | -113.00725 | 29875 ft | 239 kts | 320° |
| 2026-05-07 10:53 | 41.54417 | -113.02406 | 29873 ft | 242 kts | 320° |
| 2026-05-07 10:53 | 41.55530 | -113.04109 | 29872 ft | 244 kts | 320° |
| 2026-05-07 10:53 | 41.56651 | -113.05823 | 29875 ft | 247 kts | 320° |
| 2026-05-07 10:53 | 41.57783 | -113.07556 | 29872 ft | 248 kts | 320° |
| 2026-05-07 10:54 | 41.58923 | -113.09302 | 29875 ft | 250 kts | 320° |
| 2026-05-07 10:54 | 41.60069 | -113.11057 | 29877 ft | 251 kts | 320° |
| 2026-05-07 10:54 | 41.61221 | -113.12825 | 29884 ft | 253 kts | 320° |
| 2026-05-07 10:54 | 41.62379 | -113.14600 | 29876 ft | 254 kts | 320° |
| 2026-05-07 10:55 | 41.63541 | -113.16383 | 29873 ft | 255 kts | 320° |
| 2026-05-07 10:55 | 41.64710 | -113.18178 | 29875 ft | 256 kts | 320° |
| 2026-05-07 10:55 | 41.65880 | -113.19977 | 29884 ft | 256 kts | 320° |
| 2026-05-07 10:55 | 41.67050 | -113.21778 | 29871 ft | 257 kts | 320° |
| 2026-05-07 10:56 | 41.68224 | -113.23584 | 29873 ft | 257 kts | 320° |
| 2026-05-07 10:56 | 41.69400 | -113.25395 | 29871 ft | 258 kts | 320° |
| 2026-05-07 10:56 | 41.70576 | -113.27207 | 29878 ft | 258 kts | 320° |
| 2026-05-07 10:56 | 41.71756 | -113.29024 | 29875 ft | 259 kts | 320° |
| 2026-05-07 10:57 | 41.72935 | -113.30843 | 29876 ft | 259 kts | 320° |
| 2026-05-07 10:57 | 41.74115 | -113.32665 | 29870 ft | 259 kts | 320° |
| 2026-05-07 10:57 | 41.75298 | -113.34492 | 29879 ft | 259 kts | 320° |
| 2026-05-07 10:57 | 41.76479 | -113.36318 | 29872 ft | 259 kts | 320° |
| 2026-05-07 10:58 | 41.77659 | -113.38142 | 29871 ft | 259 kts | 320° |
| 2026-05-07 10:58 | 41.78842 | -113.39973 | 29869 ft | 259 kts | 320° |
| 2026-05-07 10:58 | 41.80025 | -113.41803 | 29876 ft | 260 kts | 320° |
| 2026-05-07 10:58 | 41.81207 | -113.43634 | 29867 ft | 259 kts | 320° |
| 2026-05-07 10:59 | 41.82388 | -113.45465 | 29868 ft | 259 kts | 320° |
| 2026-05-07 10:59 | 41.83551 | -113.47269 | 29867 ft | 259 kts | 320° |
| 2026-05-07 10:59 | 41.84728 | -113.49096 | 29876 ft | 258 kts | 320° |
| 2026-05-07 10:59 | 41.85904 | -113.50921 | 29872 ft | 257 kts | 320° |
| 2026-05-07 11:00 | 41.87071 | -113.52738 | 29870 ft | 257 kts | 320° |
| 2026-05-07 11:00 | 41.88245 | -113.54560 | 29869 ft | 259 kts | 321° |
| 2026-05-07 11:00 | 41.89423 | -113.56390 | 29870 ft | 260 kts | 321° |
| 2026-05-07 11:00 | 41.90608 | -113.58238 | 29868 ft | 261 kts | 320° |
| 2026-05-07 11:01 | 41.91795 | -113.60087 | 29869 ft | 262 kts | 321° |
| 2026-05-07 11:01 | 41.92984 | -113.61937 | 29867 ft | 262 kts | 321° |
| 2026-05-07 11:01 | 41.94174 | -113.63794 | 29872 ft | 262 kts | 321° |
| 2026-05-07 11:01 | 41.95362 | -113.65651 | 29870 ft | 262 kts | 321° |
| 2026-05-07 11:02 | 41.96553 | -113.67509 | 29866 ft | 262 kts | 321° |
| 2026-05-07 11:02 | 41.97742 | -113.69368 | 29866 ft | 262 kts | 321° |
| 2026-05-07 11:02 | 41.98906 | -113.71185 | 29872 ft | 262 kts | 321° |
| 2026-05-07 11:02 | 42.00125 | -113.73093 | 29871 ft | 263 kts | 321° |
| 2026-05-07 11:03 | 42.01314 | -113.74957 | 29868 ft | 262 kts | 321° |
| 2026-05-07 11:03 | 42.02501 | -113.76816 | 29872 ft | 262 kts | 321° |
| 2026-05-07 11:03 | 42.03688 | -113.78675 | 29878 ft | 262 kts | 321° |
| 2026-05-07 11:03 | 42.04874 | -113.80534 | 29871 ft | 261 kts | 321° |
| 2026-05-07 11:04 | 42.06043 | -113.82362 | 29873 ft | 261 kts | 321° |
| 2026-05-07 11:04 | 42.07223 | -113.84219 | 29871 ft | 261 kts | 321° |
| 2026-05-07 11:04 | 42.08404 | -113.86080 | 29872 ft | 261 kts | 321° |
| 2026-05-07 11:04 | 42.09574 | -113.87945 | 29870 ft | 260 kts | 321° |
| 2026-05-07 11:05 | 42.10761 | -113.89781 | 29869 ft | 260 kts | 322° |
| 2026-05-07 11:05 | 42.11945 | -113.91631 | 29868 ft | 260 kts | 321° |
| 2026-05-07 11:05 | 42.13115 | -113.93491 | 29863 ft | 260 kts | 321° |
| 2026-05-07 11:05 | 42.14290 | -113.95349 | 29865 ft | 261 kts | 321° |
| 2026-05-07 11:06 | 42.15472 | -113.97207 | 29855 ft | 261 kts | 321° |
| 2026-05-07 11:06 | 42.16649 | -113.99065 | 29846 ft | 261 kts | 321° |
| 2026-05-07 11:06 | 42.17827 | -114.00923 | 29854 ft | 260 kts | 321° |
| 2026-05-07 11:06 | 42.19002 | -114.02784 | 29844 ft | 261 kts | 321° |
| 2026-05-07 11:07 | 42.20179 | -114.04646 | 29840 ft | 261 kts | 321° |
| 2026-05-07 11:07 | 42.21356 | -114.06506 | 29847 ft | 260 kts | 321° |
| 2026-05-07 11:07 | 42.22532 | -114.08367 | 29841 ft | 261 kts | 320° |
| 2026-05-07 11:07 | 42.23695 | -114.10210 | 29836 ft | 261 kts | 320° |
| 2026-05-07 11:08 | 42.24888 | -114.12102 | 29840 ft | 262 kts | 320° |
| 2026-05-07 11:08 | 42.26054 | -114.13951 | 29843 ft | 262 kts | 320° |
| 2026-05-07 11:08 | 42.27234 | -114.15822 | 29841 ft | 262 kts | 320° |
| 2026-05-07 11:08 | 42.28413 | -114.17695 | 29850 ft | 262 kts | 320° |
| 2026-05-07 11:09 | 42.29590 | -114.19570 | 29850 ft | 261 kts | 320° |
| 2026-05-07 11:09 | 42.30769 | -114.21441 | 29859 ft | 262 kts | 320° |
| 2026-05-07 11:09 | 42.31947 | -114.23313 | 29859 ft | 261 kts | 320° |
| 2026-05-07 11:09 | 42.33124 | -114.25187 | 29868 ft | 262 kts | 320° |
| 2026-05-07 11:10 | 42.34299 | -114.27063 | 29876 ft | 262 kts | 320° |
| 2026-05-07 11:10 | 42.35477 | -114.28940 | 29878 ft | 262 kts | 320° |
| 2026-05-07 11:10 | 42.36658 | -114.30822 | 29880 ft | 262 kts | 320° |
| 2026-05-07 11:10 | 42.37835 | -114.32700 | 29894 ft | 263 kts | 320° |
| 2026-05-07 11:11 | 42.39021 | -114.34595 | 29897 ft | 263 kts | 320° |
| 2026-05-07 11:11 | 42.40202 | -114.36484 | 29907 ft | 263 kts | 320° |
| 2026-05-07 11:11 | 42.41385 | -114.38376 | 29909 ft | 263 kts | 320° |
| 2026-05-07 11:11 | 42.42567 | -114.40266 | 29917 ft | 263 kts | 320° |
| 2026-05-07 11:12 | 42.43748 | -114.42156 | 29917 ft | 263 kts | 319° |
| 2026-05-07 11:12 | 42.44930 | -114.44051 | 29917 ft | 263 kts | 319° |
| 2026-05-07 11:12 | 42.46110 | -114.45943 | 29916 ft | 263 kts | 319° |
| 2026-05-07 11:12 | 42.47291 | -114.47838 | 29918 ft | 263 kts | 319° |
| 2026-05-07 11:13 | 42.48458 | -114.49708 | 29918 ft | 263 kts | 319° |
| 2026-05-07 11:13 | 42.49673 | -114.51594 | 29919 ft | 262 kts | 320° |
| 2026-05-07 11:13 | 42.50865 | -114.53421 | 29916 ft | 262 kts | 320° |
| 2026-05-07 11:13 | 42.52067 | -114.55288 | 29920 ft | 263 kts | 320° |
| 2026-05-07 11:14 | 42.53266 | -114.57159 | 29917 ft | 263 kts | 320° |
| 2026-05-07 11:14 | 42.54469 | -114.59033 | 29916 ft | 263 kts | 320° |
| 2026-05-07 11:14 | 42.55671 | -114.60904 | 29908 ft | 263 kts | 320° |
| 2026-05-07 11:14 | 42.56873 | -114.62777 | 29899 ft | 263 kts | 320° |
| 2026-05-07 11:15 | 42.58072 | -114.64649 | 29893 ft | 263 kts | 320° |
| 2026-05-07 11:15 | 42.59273 | -114.66524 | 29887 ft | 263 kts | 319° |
| 2026-05-07 11:15 | 42.60475 | -114.68399 | 29875 ft | 263 kts | 319° |
| 2026-05-07 11:15 | 42.61673 | -114.70270 | 29871 ft | 263 kts | 319° |
| 2026-05-07 11:16 | 42.62873 | -114.72148 | 29872 ft | 263 kts | 319° |
| 2026-05-07 11:16 | 42.64074 | -114.74027 | 29865 ft | 263 kts | 319° |
| 2026-05-07 11:16 | 42.65275 | -114.75906 | 29866 ft | 263 kts | 319° |
| 2026-05-07 11:16 | 42.66475 | -114.77787 | 29867 ft | 263 kts | 319° |
| 2026-05-07 11:17 | 42.67672 | -114.79665 | 29877 ft | 262 kts | 319° |
| 2026-05-07 11:17 | 42.68865 | -114.81536 | 29880 ft | 262 kts | 319° |
| 2026-05-07 11:17 | 42.70057 | -114.83407 | 29874 ft | 262 kts | 319° |
| 2026-05-07 11:17 | 42.71252 | -114.85284 | 29881 ft | 262 kts | 319° |
| 2026-05-07 11:18 | 42.72446 | -114.87160 | 29876 ft | 262 kts | 319° |
| 2026-05-07 11:18 | 42.73640 | -114.89038 | 29888 ft | 262 kts | 319° |
| 2026-05-07 11:18 | 42.74833 | -114.90916 | 29890 ft | 262 kts | 319° |
| 2026-05-07 11:18 | 42.76028 | -114.92797 | 29886 ft | 263 kts | 319° |
| 2026-05-07 11:19 | 42.77225 | -114.94684 | 29883 ft | 263 kts | 319° |
| 2026-05-07 11:19 | 42.78419 | -114.96567 | 29891 ft | 263 kts | 319° |
| 2026-05-07 11:19 | 42.79618 | -114.98459 | 29886 ft | 263 kts | 319° |
| 2026-05-07 11:19 | 42.80795 | -115.00317 | 29883 ft | 263 kts | 318° |
| 2026-05-07 11:20 | 42.81992 | -115.02208 | 29889 ft | 263 kts | 319° |
| 2026-05-07 11:20 | 42.83185 | -115.04093 | 29882 ft | 263 kts | 318° |
| 2026-05-07 11:20 | 42.84379 | -115.05982 | 29883 ft | 262 kts | 318° |
| 2026-05-07 11:20 | 42.85570 | -115.07867 | 29878 ft | 263 kts | 318° |
| 2026-05-07 11:21 | 42.86762 | -115.09757 | 29873 ft | 263 kts | 318° |
| 2026-05-07 11:21 | 42.87956 | -115.11649 | 29869 ft | 263 kts | 318° |
| 2026-05-07 11:21 | 42.89133 | -115.13515 | 29868 ft | 263 kts | 318° |
| 2026-05-07 11:21 | 42.90325 | -115.15407 | 29861 ft | 263 kts | 318° |
| 2026-05-07 11:22 | 42.91517 | -115.17301 | 29858 ft | 263 kts | 318° |
| 2026-05-07 11:22 | 42.92727 | -115.19221 | 29852 ft | 263 kts | 318° |
| 2026-05-07 11:22 | 42.93906 | -115.21097 | 29850 ft | 263 kts | 318° |
| 2026-05-07 11:22 | 42.95098 | -115.22996 | 29845 ft | 263 kts | 318° |
| 2026-05-07 11:23 | 42.96291 | -115.24893 | 29837 ft | 264 kts | 318° |
| 2026-05-07 11:23 | 42.97485 | -115.26795 | 29834 ft | 264 kts | 318° |
| 2026-05-07 11:23 | 42.98679 | -115.28700 | 29837 ft | 263 kts | 317° |
| 2026-05-07 11:23 | 42.99871 | -115.30601 | 29838 ft | 263 kts | 317° |
| 2026-05-07 11:24 | 43.01062 | -115.32503 | 29841 ft | 263 kts | 317° |
| 2026-05-07 11:24 | 43.02253 | -115.34404 | 29839 ft | 263 kts | 317° |
| 2026-05-07 11:24 | 43.03442 | -115.36304 | 29843 ft | 263 kts | 317° |
| 2026-05-07 11:24 | 43.04629 | -115.38204 | 29840 ft | 263 kts | 317° |
| 2026-05-07 11:25 | 43.05414 | -115.39461 | 29842 ft | 263 kts | 317° |
| 2026-05-07 11:25 | 43.07002 | -115.42004 | 29852 ft | 263 kts | 317° |
| 2026-05-07 11:25 | 43.08188 | -115.43904 | 29854 ft | 262 kts | 317° |
| 2026-05-07 11:25 | 43.08973 | -115.45163 | 29853 ft | 262 kts | 317° |
| 2026-05-07 11:26 | 43.10544 | -115.47682 | 29855 ft | 262 kts | 317° |
| 2026-05-07 11:26 | 43.11342 | -115.48964 | 29858 ft | 262 kts | 317° |
| 2026-05-07 11:26 | 43.12910 | -115.51482 | 29866 ft | 262 kts | 317° |
| 2026-05-07 11:26 | 43.14092 | -115.53385 | 29875 ft | 262 kts | 317° |
| 2026-05-07 11:27 | 43.15263 | -115.55268 | 30003 ft | 258 kts | 317° |
| 2026-05-07 11:27 | 43.16053 | -115.56537 | 30010 ft | 259 kts | 317° |
| 2026-05-07 11:27 | 43.17222 | -115.58416 | 30002 ft | 260 kts | 317° |
| 2026-05-07 11:27 | 43.18390 | -115.60304 | 30008 ft | 260 kts | 316° |
| 2026-05-07 11:28 | 43.19562 | -115.62195 | 30010 ft | 261 kts | 317° |
| 2026-05-07 11:28 | 43.20724 | -115.64068 | 30011 ft | 261 kts | 317° |
| 2026-05-07 11:28 | 43.21902 | -115.65970 | 30005 ft | 261 kts | 316° |
| 2026-05-07 11:28 | 43.23079 | -115.67870 | 30012 ft | 261 kts | 316° |
| 2026-05-07 11:29 | 43.24254 | -115.69771 | 30009 ft | 261 kts | 316° |
| 2026-05-07 11:29 | 43.25435 | -115.71679 | 29804 ft | 264 kts | 317° |
| 2026-05-07 11:29 | 43.26538 | -115.73431 | 29475 ft | 263 kts | 316° |
| 2026-05-07 11:29 | 43.27718 | -115.75346 | 29114 ft | 262 kts | 316° |
| 2026-05-07 11:30 | 43.29424 | -115.77602 | 28645 ft | 255 kts | 324° |
| 2026-05-07 11:30 | 43.30305 | -115.78728 | 28413 ft | 256 kts | 320° |
| 2026-05-07 11:30 | 43.31529 | -115.80513 | 27994 ft | 258 kts | 318° |
| 2026-05-07 11:30 | 43.32751 | -115.82350 | 27476 ft | 260 kts | 318° |
| 2026-05-07 11:31 | 43.33948 | -115.84143 | 26972 ft | 256 kts | 317° |
| 2026-05-07 11:31 | 43.34896 | -115.86236 | 26465 ft | 261 kts | 301° |
| 2026-05-07 11:31 | 43.35552 | -115.88558 | 25971 ft | 260 kts | 297° |
| 2026-05-07 11:31 | 43.36120 | -115.90919 | 25489 ft | 257 kts | 297° |
| 2026-05-07 11:32 | 43.37580 | -115.95236 | 24558 ft | 241 kts | 306° |
| 2026-05-07 11:32 | 43.38372 | -115.97248 | 24098 ft | 237 kts | 304° |
| 2026-05-07 11:32 | 43.39115 | -115.99256 | 23587 ft | 232 kts | 304° |
| 2026-05-07 11:33 | 43.39822 | -116.01166 | 22864 ft | 216 kts | 304° |
| 2026-05-07 11:33 | 43.40406 | -116.02750 | 22231 ft | 206 kts | 304° |
| 2026-05-07 11:33 | 43.40917 | -116.04142 | 21665 ft | 198 kts | 304° |
| 2026-05-07 11:33 | 43.41531 | -116.05805 | 20979 ft | 192 kts | 304° |
| 2026-05-07 11:34 | 43.42132 | -116.07426 | 20314 ft | 187 kts | 304° |
| 2026-05-07 11:34 | 43.42715 | -116.09003 | 19669 ft | 183 kts | 303° |
| 2026-05-07 11:34 | 43.43288 | -116.10552 | 19029 ft | 180 kts | 303° |
| 2026-05-07 11:34 | 43.43851 | -116.12075 | 18408 ft | 177 kts | 303° |
| 2026-05-07 11:35 | 43.44409 | -116.13585 | 17639 ft | 177 kts | 302° |
| 2026-05-07 11:35 | 43.44965 | -116.15091 | 16864 ft | 176 kts | 302° |
| 2026-05-07 11:35 | 43.45519 | -116.16592 | 16118 ft | 175 kts | 301° |
| 2026-05-07 11:35 | 43.46066 | -116.18077 | 15388 ft | 173 kts | 301° |
| 2026-05-07 11:36 | 43.46596 | -116.19560 | 14674 ft | 172 kts | 297° |
| 2026-05-07 11:36 | 43.47091 | -116.21046 | 13978 ft | 170 kts | 298° |
| 2026-05-07 11:36 | 43.47599 | -116.22498 | 13217 ft | 168 kts | 298° |
| 2026-05-07 11:36 | 43.48096 | -116.23943 | 12447 ft | 166 kts | 297° |
| 2026-05-07 11:37 | 43.48584 | -116.25372 | 11705 ft | 164 kts | 297° |
| 2026-05-07 11:37 | 43.49066 | -116.26787 | 10974 ft | 162 kts | 297° |
| 2026-05-07 11:37 | 43.49543 | -116.28188 | 10262 ft | 161 kts | 296° |
| 2026-05-07 11:37 | 43.50006 | -116.29562 | 9533 ft | 160 kts | 296° |
| 2026-05-07 11:38 | 43.50472 | -116.30946 | 8767 ft | 159 kts | 296° |
| 2026-05-07 11:38 | 43.50921 | -116.32274 | 8390 ft | 140 kts | 296° |
| 2026-05-07 11:38 | 43.51306 | -116.33429 | 8131 ft | 126 kts | 296° |
| 2026-05-07 11:38 | 43.51666 | -116.34499 | 7864 ft | 121 kts | 297° |
| 2026-05-07 11:39 | 43.52012 | -116.35530 | 7641 ft | 116 kts | 297° |
| 2026-05-07 11:39 | 43.52352 | -116.36635 | 7450 ft | 140 kts | 292° |
| 2026-05-07 11:39 | 43.52762 | -116.37954 | 7279 ft | 159 kts | 300° |
| 2026-05-07 11:39 | 43.53370 | -116.39306 | 7063 ft | 171 kts | 303° |
| 2026-05-07 11:40 | 43.54177 | -116.40545 | 6760 ft | 181 kts | 318° |
| 2026-05-07 11:40 | 43.55272 | -116.41455 | 6446 ft | 188 kts | 338° |
| 2026-05-07 11:40 | 43.56560 | -116.41816 | 6185 ft | 189 kts | 355° |
| 2026-05-07 11:40 | 43.57859 | -116.41559 | 5977 ft | 189 kts | 17° |
| 2026-05-07 11:41 | 43.58681 | -116.40974 | 5886 ft | 188 kts | 33° |
| 2026-05-07 11:41 | 43.59182 | -116.40304 | 5818 ft | 189 kts | 48° |
| 2026-05-07 11:41 | 43.59553 | -116.39557 | 5747 ft | 189 kts | 57° |
| 2026-05-07 11:41 | 43.59885 | -116.38537 | 5663 ft | 190 kts | 69° |
| 2026-05-07 11:42 | 43.60032 | -116.37477 | 5584 ft | 185 kts | 85° |
| 2026-05-07 11:42 | 43.59993 | -116.36203 | 5482 ft | 175 kts | 94° |
| 2026-05-07 11:42 | 43.59929 | -116.35303 | 5413 ft | 170 kts | 94° |
| 2026-05-07 11:42 | 43.59873 | -116.34450 | 5344 ft | 166 kts | 94° |
| 2026-05-07 11:43 | 43.59759 | -116.33083 | 5227 ft | 160 kts | 100° |
| 2026-05-07 11:43 | 43.59525 | -116.31643 | 4889 ft | 150 kts | 106° |
| 2026-05-07 11:43 | 43.59213 | -116.30329 | 4506 ft | 138 kts | 111° |
| 2026-05-07 11:43 | 43.58904 | -116.29264 | 4274 ft | 127 kts | 113° |
| 2026-05-07 11:44 | 43.58637 | -116.28434 | 4132 ft | 135 kts | 116° |
| 2026-05-07 11:44 | 43.58323 | -116.27548 | 3923 ft | 128 kts | 118° |
| 2026-05-07 11:44 | 43.57975 | -116.26563 | 3698 ft | 101 kts | 115° |
| 2026-05-07 11:44 | 43.57806 | -116.26043 | 3538 ft | 101 kts | 115° |
| 2026-05-07 11:45 | 43.57566 | -116.25275 | 3294 ft | 102 kts | 117° |
| 2026-05-07 11:45 | 43.57262 | -116.24379 | 3068 ft | 102 kts | 118° |
| 2026-05-07 11:45 | 43.56966 | -116.23526 | 2867 ft | 90 kts | 118° |
| 2026-05-07 11:45 | 43.56756 | -116.22915 | 2843 ft | 69 kts | 118° |
| 2026-05-07 11:46 | 43.56622 | -116.22552 | 2848 ft | 66 kts | 116° |
| 2026-05-07 11:46 | 43.56502 | -116.22149 | 2847 ft | 18 kts | 123° |
| 2026-05-07 11:46 | 43.56442 | -116.21983 | 2847 ft | 32 kts | 121° |
| 2026-05-07 11:46 | 43.56376 | -116.21754 | 2850 ft | 9 kts | 70° |
| 2026-05-07 11:47 | 43.56420 | -116.21715 | 2849 ft | 10 kts | 8° |
| 2026-05-07 11:47 | 43.56441 | -116.21639 | 2847 ft | 10 kts | 111° |
| 2026-05-07 11:47 | 43.56418 | -116.21568 | 2847 ft | 7 kts | 114° |
| 2026-05-07 11:47 | 43.56401 | -116.21519 | 2847 ft | 5 kts | 115° |
| 2026-05-07 11:48 | 43.56428 | -116.21452 | 2846 ft | 14 kts | 17° |
| 2026-05-07 11:48 | 43.56504 | -116.21359 | 2845 ft | 14 kts | 64° |
| 2026-05-07 11:48 | 43.56538 | -116.21279 | 2845 ft | 6 kts | 55° |
| 2026-05-07 11:48 | 43.56542 | -116.21265 | 2843 ft | 0 kts | 88° |